createdAt,value
2022-12-09T00:02:04.627Z,100471.44
2022-12-09T00:04:31.448Z,100478.88
2022-12-09T00:06:58.058Z,100476.91
2022-12-09T00:09:24.643Z,100465.16
2022-12-09T00:11:52.811Z,100489.00
2022-12-09T00:14:19.384Z,100485.44
2022-12-09T00:16:46.123Z,100444.22
2022-12-09T00:19:13.012Z,100463.66
2022-12-09T00:21:39.556Z,100448.84
2022-12-09T00:24:08.030Z,100494.88
2022-12-09T00:26:34.738Z,100483.53
2022-12-09T00:29:01.799Z,100381.72
2022-12-09T00:31:32.440Z,100470.91
2022-12-09T00:34:08.940Z,100380.66
2022-12-09T00:36:37.724Z,100477.91
2022-12-09T00:39:04.551Z,100396.69
2022-12-09T00:41:31.438Z,100289.75
2022-12-09T00:43:58.877Z,100402.59
2022-12-09T00:46:25.572Z,100482.22
2022-12-09T00:48:53.040Z,100487.50
2022-12-09T00:51:22.381Z,100490.03
2022-12-09T00:53:53.487Z,100488.13
2022-12-09T00:56:22.022Z,100447.94
2022-12-09T00:58:48.652Z,100457.66
2022-12-09T01:01:15.281Z,100483.78
2022-12-09T01:03:41.977Z,100476.72
2022-12-09T01:06:20.235Z,100474.16
2022-12-09T01:08:47.127Z,100459.88
2022-12-09T01:11:20.657Z,100475.94
2022-12-09T01:13:48.915Z,100466.06
2022-12-09T01:16:18.094Z,100456.19
2022-12-09T01:18:45.247Z,100458.03
2022-12-09T01:21:12.760Z,100442.78
2022-12-09T01:23:40.005Z,100490.03
2022-12-09T01:26:07.397Z,100479.41
2022-12-09T01:28:36.110Z,100473.16
2022-12-09T01:31:07.048Z,100474.06
2022-12-09T01:33:34.182Z,100488.03
2022-12-09T01:36:03.603Z,100509.34
2022-12-09T01:38:30.283Z,100484.44
2022-12-09T01:40:57.811Z,100507.47
2022-12-09T01:43:24.419Z,100499.53
2022-12-09T01:45:51.300Z,100479.88
2022-12-09T01:48:26.065Z,100481.88
2022-12-09T01:50:56.789Z,100503.44
2022-12-09T01:53:27.557Z,100500.75
2022-12-09T01:55:57.508Z,100495.16
2022-12-09T01:58:24.677Z,100496.34
2022-12-09T02:00:52.155Z,100439.78
2022-12-09T02:03:21.575Z,100470.03
2022-12-09T02:05:49.165Z,100486.91
2022-12-09T02:08:18.706Z,100476.25
2022-12-09T02:11:12.808Z,100496.72
2022-12-09T02:13:54.774Z,100494.84
2022-12-09T02:16:24.830Z,100485.69
2022-12-09T02:19:01.100Z,100469.59
2022-12-09T02:21:48.900Z,100493.66
2022-12-09T02:24:25.155Z,100456.84
2022-12-09T02:27:09.920Z,100487.69
2022-12-09T02:29:54.058Z,100500.69
2022-12-09T02:32:47.739Z,100493.31
2022-12-09T02:35:32.545Z,100428.06
2022-12-09T02:38:09.405Z,100493.94
2022-12-09T02:40:50.433Z,100497.56
2022-12-09T02:43:21.440Z,100485.94
2022-12-09T02:45:55.011Z,100501.81
2022-12-09T02:48:27.818Z,100485.13
2022-12-09T02:50:57.378Z,100465.47
2022-12-09T02:53:25.900Z,100480.53
2022-12-09T02:55:56.197Z,100482.59
2022-12-09T02:58:23.025Z,100472.84
2022-12-09T03:00:52.287Z,100446.72
2022-12-09T03:03:19.318Z,100432.53
2022-12-09T03:06:02.761Z,100486.66
2022-12-09T03:08:34.314Z,100445.72
2022-12-09T03:11:05.207Z,100474.16
2022-12-09T03:13:54.117Z,100466.94
2022-12-09T03:16:36.749Z,100482.88
2022-12-09T03:19:25.352Z,100481.91
2022-12-09T03:21:57.397Z,100472.06
2022-12-09T03:24:50.352Z,100462.63
2022-12-09T03:27:19.881Z,100478.06
2022-12-09T03:29:48.516Z,100356.75
2022-12-09T03:32:18.664Z,100467.69
2022-12-09T03:34:48.287Z,100374.94
2022-12-09T03:37:17.740Z,100464.47
2022-12-09T03:39:45.630Z,100445.88
2022-12-09T03:42:20.007Z,100453.13
2022-12-09T03:44:58.461Z,100454.06
2022-12-09T03:47:25.074Z,100458.44
2022-12-09T03:49:51.984Z,100460.09
2022-12-09T03:52:25.166Z,100448.72
2022-12-09T03:55:05.747Z,100447.03
2022-12-09T03:57:37.987Z,100410.47
2022-12-09T04:00:06.394Z,100414.94
2022-12-09T04:02:39.429Z,100423.03
2022-12-09T04:05:06.720Z,100428.22
2022-12-09T04:07:33.645Z,100434.41
2022-12-09T04:10:00.461Z,100445.03
2022-12-09T04:12:27.057Z,100419.91
2022-12-09T04:14:53.766Z,100343.75
2022-12-09T04:17:20.487Z,100439.03
2022-12-09T04:19:47.262Z,100323.53
2022-12-09T04:22:14.014Z,100426.28
2022-12-09T04:24:40.559Z,100340.38
2022-12-09T04:27:07.175Z,100435.84
2022-12-09T04:29:33.726Z,100425.84
2022-12-09T04:32:00.782Z,100282.94
2022-12-09T04:34:27.834Z,100424.88
2022-12-09T04:36:54.343Z,100432.09
2022-12-09T04:39:21.159Z,100412.44
2022-12-09T04:41:47.715Z,100411.41
2022-12-09T04:44:14.236Z,100434.41
2022-12-09T04:46:41.182Z,100441.56
2022-12-09T04:49:08.187Z,100442.34
2022-12-09T04:51:39.473Z,100436.84
2022-12-09T04:54:07.498Z,100445.69
2022-12-09T04:56:33.999Z,100437.41
2022-12-09T04:59:00.466Z,100444.72
2022-12-09T05:01:31.128Z,100441.31
2022-12-09T05:03:58.560Z,100357.47
2022-12-09T05:06:25.993Z,100446.25
2022-12-09T05:08:52.877Z,100427.56
2022-12-09T05:11:20.941Z,100458.00
2022-12-09T05:13:47.937Z,100309.47
2022-12-09T05:16:17.469Z,100432.88
2022-12-09T05:18:45.741Z,100442.06
2022-12-09T05:21:16.067Z,100427.88
2022-12-09T05:23:43.756Z,100400.28
2022-12-09T05:26:13.152Z,100350.28
2022-12-09T05:28:40.289Z,100436.03
2022-12-09T05:31:11.752Z,100341.47
2022-12-09T05:33:38.891Z,100421.81
2022-12-09T05:36:11.074Z,100434.53
2022-12-09T05:38:38.166Z,100429.06
2022-12-09T05:41:05.341Z,100422.63
2022-12-09T05:43:34.015Z,100425.50
2022-12-09T05:46:01.869Z,100437.25
2022-12-09T05:48:29.041Z,100352.28
2022-12-09T05:51:01.369Z,100266.59
2022-12-09T05:53:29.781Z,100438.59
2022-12-09T05:55:57.351Z,100421.69
2022-12-09T05:58:24.673Z,100431.56
2022-12-09T06:00:51.601Z,100412.88
2022-12-09T06:03:18.338Z,100437.88
2022-12-09T06:05:45.899Z,100396.09
2022-12-09T06:08:12.757Z,100400.63
2022-12-09T06:10:41.365Z,100345.38
2022-12-09T06:13:08.634Z,100406.13
2022-12-09T06:15:36.032Z,100436.44
2022-12-09T06:18:03.163Z,100371.44
2022-12-09T06:20:30.009Z,100417.78
2022-12-09T06:22:57.541Z,100423.94
2022-12-09T06:25:25.409Z,100386.22
2022-12-09T06:27:53.894Z,100423.81
2022-12-09T06:30:20.965Z,100399.63
2022-12-09T06:32:47.754Z,100405.13
2022-12-09T06:35:15.567Z,100425.88
2022-12-09T06:37:42.987Z,100351.56
2022-12-09T06:40:10.440Z,100421.13
2022-12-09T06:42:37.634Z,100418.56
2022-12-09T06:45:05.013Z,100427.44
2022-12-09T06:47:32.797Z,100402.31
2022-12-09T06:50:06.517Z,100377.53
2022-12-09T06:52:37.583Z,100324.63
2022-12-09T06:55:06.333Z,100407.31
2022-12-09T06:57:34.649Z,100442.78
2022-12-09T07:00:01.908Z,100435.56
2022-12-09T07:02:34.049Z,100393.53
2022-12-09T07:05:02.861Z,100420.22
2022-12-09T07:07:29.905Z,100441.38
2022-12-09T07:09:57.040Z,100422.25
2022-12-09T07:12:24.108Z,100404.94
2022-12-09T07:14:50.949Z,100437.75
2022-12-09T07:17:20.073Z,100378.66
2022-12-09T07:19:47.365Z,100416.06
2022-12-09T07:22:14.640Z,100453.38
2022-12-09T07:24:41.981Z,100437.47
2022-12-09T07:27:18.608Z,100430.25
2022-12-09T07:29:47.057Z,100439.13
2022-12-09T07:32:14.247Z,100460.34
2022-12-09T07:34:42.409Z,100457.72
2022-12-09T07:37:09.965Z,100474.69
2022-12-09T07:39:36.832Z,100391.66
2022-12-09T07:42:03.840Z,100466.66
2022-12-09T07:44:31.094Z,100472.03
2022-12-09T07:46:58.429Z,100483.53
2022-12-09T07:49:25.737Z,100462.06
2022-12-09T07:51:52.799Z,100475.59
2022-12-09T07:54:20.525Z,100470.88
2022-12-09T07:56:47.975Z,100365.69
2022-12-09T07:59:15.531Z,100482.81
2022-12-09T08:01:43.131Z,100463.25
2022-12-09T08:04:10.281Z,100480.31
2022-12-09T08:06:38.018Z,100411.91
2022-12-09T08:09:08.154Z,100470.34
2022-12-09T08:11:35.085Z,100469.78
2022-12-09T08:14:10.807Z,100486.09
2022-12-09T08:16:40.513Z,100398.81
2022-12-09T08:19:08.083Z,100490.34
2022-12-09T08:21:35.163Z,100374.44
2022-12-09T08:24:06.010Z,100389.41
2022-12-09T08:26:34.548Z,100436.41
2022-12-09T08:29:01.946Z,100485.41
2022-12-09T08:31:29.094Z,100354.88
2022-12-09T08:33:56.825Z,100415.28
2022-12-09T08:36:26.440Z,100476.81
2022-12-09T08:38:53.736Z,100486.78
2022-12-09T08:41:35.898Z,100455.75
2022-12-09T08:44:11.375Z,100474.28
2022-12-09T08:46:40.201Z,100483.50
2022-12-09T08:49:08.146Z,100474.38
2022-12-09T08:51:35.679Z,100486.44
2022-12-09T08:54:03.626Z,100421.28
2022-12-09T08:56:30.664Z,100449.34
2022-12-09T08:58:58.040Z,100402.00
2022-12-09T09:01:32.338Z,100474.97
2022-12-09T09:04:05.447Z,100464.69
2022-12-09T09:06:33.128Z,100447.69
2022-12-09T09:09:00.170Z,100486.38
2022-12-09T09:11:27.949Z,100422.72
2022-12-09T09:13:55.293Z,100404.84
2022-12-09T09:16:24.142Z,100404.13
2022-12-09T09:18:52.028Z,100476.94
2022-12-09T09:21:22.525Z,100403.72
2022-12-09T09:23:50.155Z,100475.38
2022-12-09T09:26:20.198Z,100386.44
2022-12-09T09:28:48.076Z,100482.59
2022-12-09T09:31:22.165Z,100474.97
2022-12-09T09:33:49.831Z,100476.72
2022-12-09T09:36:20.820Z,100472.69
2022-12-09T09:38:49.948Z,100419.28
2022-12-09T09:41:38.030Z,100504.72
2022-12-09T09:44:30.614Z,100480.91
2022-12-09T09:46:58.551Z,100494.09
2022-12-09T09:49:34.665Z,100479.78
2022-12-09T09:52:08.708Z,100493.75
2022-12-09T09:54:35.689Z,100413.38
2022-12-09T09:57:11.003Z,100485.41
2022-12-09T10:00:00.748Z,100490.13
2022-12-09T10:02:58.242Z,100491.66
2022-12-09T10:05:39.206Z,100488.72
2022-12-09T10:08:34.976Z,100488.59
2022-12-09T10:11:17.974Z,100480.03
2022-12-09T10:13:58.633Z,100496.19
2022-12-09T10:16:49.552Z,100493.72
2022-12-09T10:19:19.749Z,100493.41
2022-12-09T10:21:48.882Z,100492.44
2022-12-09T10:24:39.847Z,100491.88
2022-12-09T10:27:37.647Z,100486.19
2022-12-09T10:30:07.687Z,100419.28
2022-12-09T10:32:36.875Z,100436.44
2022-12-09T10:35:36.724Z,100467.88
2022-12-09T10:38:10.436Z,100481.53
2022-12-09T10:40:52.995Z,100477.44
2022-12-09T10:43:41.016Z,100479.94
2022-12-09T10:46:24.341Z,100453.44
2022-12-09T10:48:56.287Z,100388.81
2022-12-09T10:51:32.013Z,100390.88
2022-12-09T10:54:23.142Z,100463.28
2022-12-09T10:57:05.070Z,100474.75
2022-12-09T10:59:32.269Z,100475.25
2022-12-09T11:02:01.672Z,100462.09
2022-12-09T11:04:41.775Z,100465.31
2022-12-09T11:07:20.925Z,100440.75
2022-12-09T11:09:58.832Z,100410.00
2022-12-09T11:12:30.951Z,100472.38
2022-12-09T11:15:04.456Z,100465.69
2022-12-09T11:17:36.845Z,100451.78
2022-12-09T11:20:07.549Z,100470.56
2022-12-09T11:22:40.334Z,100384.81
2022-12-09T11:25:27.282Z,100466.38
2022-12-09T11:27:57.073Z,100465.69
2022-12-09T11:30:57.595Z,100455.13
2022-12-09T11:33:30.731Z,100368.75
2022-12-09T11:36:18.702Z,100444.19
2022-12-09T11:38:48.018Z,100469.44
2022-12-09T11:41:15.200Z,100468.50
2022-12-09T11:43:50.161Z,100468.69
2022-12-09T11:46:22.421Z,100448.88
2022-12-09T11:48:55.919Z,100399.00
2022-12-09T11:51:24.193Z,100425.75
2022-12-09T11:53:53.599Z,100427.81
2022-12-09T11:56:25.733Z,100370.19
2022-12-09T11:59:17.825Z,100465.56
2022-12-09T12:02:04.575Z,100449.16
2022-12-09T12:04:36.250Z,100458.66
2022-12-09T12:07:15.717Z,100450.63
2022-12-09T12:09:56.099Z,100455.91
2022-12-09T12:12:25.559Z,100467.06
2022-12-09T12:14:53.869Z,100459.88
2022-12-09T12:17:37.028Z,100367.34
2022-12-09T12:20:04.952Z,100403.09
2022-12-09T12:22:54.495Z,100450.56
2022-12-09T12:25:46.616Z,100433.44
2022-12-09T12:28:57.317Z,100447.50
2022-12-09T12:31:40.808Z,100447.72
2022-12-09T12:34:26.120Z,100358.56
2022-12-09T12:37:20.026Z,100447.72
2022-12-09T12:40:05.025Z,100452.66
2022-12-09T12:42:38.028Z,100452.34
2022-12-09T12:45:55.102Z,100446.06
2022-12-09T12:48:38.464Z,100384.97
2022-12-09T12:51:24.690Z,100441.13
2022-12-09T12:54:03.407Z,100437.50
2022-12-09T12:56:44.979Z,100341.16
2022-12-09T12:59:36.334Z,100427.94
2022-12-09T13:02:22.965Z,100412.81
2022-12-09T13:05:23.108Z,100427.13
2022-12-09T13:07:55.978Z,100430.41
2022-12-09T13:10:40.003Z,100425.06
2022-12-09T13:13:42.385Z,100425.25
2022-12-09T13:16:19.776Z,100416.22
2022-12-09T13:18:48.510Z,100410.75
2022-12-09T13:21:16.479Z,100417.25
2022-12-09T13:24:21.489Z,100414.72
2022-12-09T13:27:08.075Z,100420.00
2022-12-09T13:29:39.626Z,100387.69
2022-12-09T13:32:43.014Z,100424.16
2022-12-09T13:35:19.657Z,100321.25
2022-12-09T13:37:46.763Z,100440.56
2022-12-09T13:40:35.879Z,100421.56
2022-12-09T13:43:02.351Z,100437.41
2022-12-09T13:45:36.811Z,100426.38
2022-12-09T13:48:16.552Z,100421.81
2022-12-09T13:50:51.412Z,100447.66
2022-12-09T13:53:20.971Z,100443.06
2022-12-09T13:56:25.169Z,100434.31
2022-12-09T13:59:23.382Z,100414.69
2022-12-09T14:02:01.769Z,100428.88
2022-12-09T14:04:33.444Z,100425.28
2022-12-09T14:07:15.790Z,100417.22
2022-12-09T14:09:45.513Z,100429.25
2022-12-09T14:12:34.854Z,100424.81
2022-12-09T14:15:26.009Z,100428.97
2022-12-09T14:18:02.333Z,100419.75
2022-12-09T14:20:31.812Z,100350.06
2022-12-09T14:23:07.379Z,100397.81
2022-12-09T14:25:33.890Z,100436.97
2022-12-09T14:28:09.640Z,100442.13
2022-12-09T14:30:50.388Z,100440.25
2022-12-09T14:33:29.086Z,100440.72
2022-12-09T14:36:02.089Z,100402.91
2022-12-09T14:38:54.357Z,100443.66
2022-12-09T14:41:39.495Z,100456.97
2022-12-09T14:44:49.153Z,100453.41
2022-12-09T14:47:28.054Z,100456.69
2022-12-09T14:49:56.226Z,100369.88
2022-12-09T14:52:33.900Z,100395.59
2022-12-09T14:55:04.643Z,100461.22
2022-12-09T14:57:41.461Z,100351.97
2022-12-09T15:00:28.362Z,100451.63
2022-12-09T15:03:30.107Z,100350.69
2022-12-09T15:05:55.474Z,100441.88
2022-12-09T15:08:30.608Z,100470.41
2022-12-09T15:10:57.842Z,100401.47
2022-12-09T15:13:25.743Z,100450.56
2022-12-09T15:15:53.309Z,100442.34
2022-12-09T15:18:25.683Z,100469.16
2022-12-09T15:20:58.451Z,100466.47
2022-12-09T15:23:32.645Z,100461.88
2022-12-09T15:26:06.648Z,100478.84
2022-12-09T15:28:35.723Z,100468.50
2022-12-09T15:31:03.997Z,100472.06
2022-12-09T15:33:39.122Z,100472.97
2022-12-09T15:36:09.773Z,100378.28
2022-12-09T15:38:42.145Z,100469.34
2022-12-09T15:41:28.371Z,100453.13
2022-12-09T15:43:59.219Z,100463.91
2022-12-09T15:46:27.625Z,100469.16
2022-12-09T15:48:57.506Z,100463.00
2022-12-09T15:51:26.402Z,100415.56
2022-12-09T15:54:01.380Z,100362.59
2022-12-09T15:56:37.785Z,100466.88
2022-12-09T15:59:20.705Z,100454.50
2022-12-09T16:01:52.047Z,100472.97
2022-12-09T16:04:22.515Z,100387.84
2022-12-09T16:06:50.306Z,100429.72
2022-12-09T16:09:20.170Z,100393.19
2022-12-09T16:11:50.291Z,100347.53
2022-12-09T16:14:18.839Z,100446.84
2022-12-09T16:17:01.373Z,100362.56
2022-12-09T16:19:31.056Z,100472.63
2022-12-09T16:22:11.098Z,100476.16
2022-12-09T16:25:13.005Z,100467.16
2022-12-09T16:27:37.198Z,100463.44
2022-12-09T16:30:22.266Z,100459.53
2022-12-09T16:33:00.932Z,100440.56
2022-12-09T16:35:45.669Z,100431.09
2022-12-09T16:38:18.229Z,100445.72
2022-12-09T16:40:44.679Z,100471.31
2022-12-09T16:43:17.321Z,100463.13
2022-12-09T16:45:44.671Z,100460.03
2022-12-09T16:48:12.400Z,100448.66
2022-12-09T16:50:57.025Z,100463.53
2022-12-09T16:53:30.039Z,100428.81
2022-12-09T16:56:01.520Z,100437.00
2022-12-09T16:58:30.384Z,100378.31
2022-12-09T17:00:58.733Z,100410.97
2022-12-09T17:03:39.960Z,100479.16
2022-12-09T17:06:07.519Z,100444.09
2022-12-09T17:08:34.050Z,100456.84
2022-12-09T17:11:00.601Z,100479.00
2022-12-09T17:13:27.723Z,100468.97
2022-12-09T17:15:58.328Z,100482.22
2022-12-09T17:18:26.210Z,100500.41
2022-12-09T17:21:00.759Z,100480.38
2022-12-09T17:23:27.535Z,100485.13
2022-12-09T17:25:58.618Z,100444.72
2022-12-09T17:28:29.858Z,100491.13
2022-12-09T17:31:00.591Z,100469.09
2022-12-09T17:33:28.994Z,100500.50
2022-12-09T17:35:56.507Z,100396.91
2022-12-09T17:38:23.316Z,100482.94
2022-12-09T17:40:49.984Z,100317.25
2022-12-09T17:43:16.526Z,100481.09
2022-12-09T17:45:43.112Z,100490.38
2022-12-09T17:48:10.369Z,100497.78
2022-12-09T17:50:38.279Z,100486.34
2022-12-09T17:53:06.899Z,100484.69
2022-12-09T17:55:33.495Z,100476.63
2022-12-09T17:58:00.088Z,100474.00
2022-12-09T18:00:26.728Z,100493.50
2022-12-09T18:02:53.292Z,100495.63
2022-12-09T18:05:20.139Z,100505.47
2022-12-09T18:07:46.668Z,100508.50
2022-12-09T18:10:13.308Z,100521.03
2022-12-09T18:12:40.132Z,100512.06
2022-12-09T18:15:07.935Z,100504.91
2022-12-09T18:17:34.880Z,100514.75
2022-12-09T18:20:01.436Z,100524.41
2022-12-09T18:22:27.991Z,100512.38
2022-12-09T18:24:54.864Z,100503.06
2022-12-09T18:27:21.444Z,100502.50
2022-12-09T18:29:47.918Z,100514.47
2022-12-09T18:32:14.582Z,100485.19
2022-12-09T18:34:41.124Z,100509.97
2022-12-09T18:37:07.615Z,100511.34
2022-12-09T18:39:34.959Z,100507.13
2022-12-09T18:42:01.570Z,100515.63
2022-12-09T18:44:28.145Z,100529.97
2022-12-09T18:46:54.803Z,100428.88
2022-12-09T18:49:23.960Z,100504.81
2022-12-09T18:51:52.488Z,100529.06
2022-12-09T18:54:28.046Z,100546.59
2022-12-09T18:56:55.750Z,100545.81
2022-12-09T18:59:24.890Z,100525.31
2022-12-09T19:01:52.066Z,100529.25
2022-12-09T19:04:24.989Z,100525.78
2022-12-09T19:06:54.483Z,100508.94
2022-12-09T19:09:24.062Z,100560.28
2022-12-09T19:11:51.712Z,100555.38
2022-12-09T19:14:20.390Z,100567.75
2022-12-09T19:16:47.566Z,100555.50
2022-12-09T19:19:19.088Z,100537.06
2022-12-09T19:21:46.253Z,100544.63
2022-12-09T19:24:15.791Z,100555.88
2022-12-09T19:26:42.883Z,100536.34
2022-12-09T19:29:12.075Z,100392.41
2022-12-09T19:31:44.053Z,100542.38
2022-12-09T19:34:15.236Z,100584.28
2022-12-09T19:36:43.127Z,100590.41
2022-12-09T19:39:12.395Z,100554.50
2022-12-09T19:41:40.340Z,100575.69
2022-12-09T19:44:07.771Z,100558.28
2022-12-09T19:46:35.118Z,100546.19
2022-12-09T19:49:02.547Z,100590.97
2022-12-09T19:51:29.607Z,100525.38
2022-12-09T19:53:58.238Z,100409.38
2022-12-09T19:56:25.215Z,100491.78
2022-12-09T19:58:53.326Z,100567.00
2022-12-09T20:01:26.011Z,100589.00
2022-12-09T20:03:58.168Z,100492.41
2022-12-09T20:06:25.389Z,100588.28
2022-12-09T20:08:51.972Z,100475.44
2022-12-09T20:11:24.200Z,100560.31
2022-12-09T20:13:52.749Z,100483.59
2022-12-09T20:16:22.315Z,100402.06
2022-12-09T20:18:50.888Z,100561.56
2022-12-09T20:21:19.524Z,100609.63
2022-12-09T20:23:46.745Z,100522.25
2022-12-09T20:26:15.138Z,100581.13
2022-12-09T20:28:43.941Z,100506.00
2022-12-09T20:31:21.084Z,100589.16
2022-12-09T20:33:48.251Z,100581.66
2022-12-09T20:36:18.189Z,100508.88
2022-12-09T20:38:49.338Z,100619.66
2022-12-09T20:41:16.743Z,100575.19
2022-12-09T20:43:47.204Z,100520.53
2022-12-09T20:46:17.404Z,100610.25
2022-12-09T20:48:44.383Z,100568.63
2022-12-09T20:51:18.489Z,100585.59
2022-12-09T20:53:46.533Z,100590.41
2022-12-09T20:56:14.494Z,100610.59
2022-12-09T20:58:42.787Z,100518.53
2022-12-09T21:01:14.384Z,100583.75
2022-12-09T21:03:41.997Z,100523.81
2022-12-09T21:06:09.974Z,100621.75
2022-12-09T21:08:37.338Z,100618.06
2022-12-09T21:11:10.314Z,100586.63
2022-12-09T21:13:43.468Z,100597.41
2022-12-09T21:16:15.839Z,100515.97
2022-12-09T21:18:43.524Z,100618.13
2022-12-09T21:21:10.088Z,100580.31
2022-12-09T21:23:37.658Z,100500.34
2022-12-09T21:26:09.708Z,100575.66
2022-12-09T21:28:37.936Z,100611.09
2022-12-09T21:31:09.762Z,100585.34
2022-12-09T21:33:37.560Z,100579.94
2022-12-09T21:36:06.110Z,100612.09
2022-12-09T21:38:32.778Z,100582.97
2022-12-09T21:41:08.189Z,100612.41
2022-12-09T21:43:36.096Z,100595.97
2022-12-09T21:46:14.102Z,100613.13
2022-12-09T21:48:41.041Z,100513.47
2022-12-09T21:51:09.747Z,100582.41
2022-12-09T21:53:37.151Z,100578.63
2022-12-09T21:56:14.105Z,100601.59
2022-12-09T21:58:40.767Z,100490.06
2022-12-09T22:01:19.442Z,100518.59
2022-12-09T22:03:47.411Z,100522.78
2022-12-09T22:06:15.100Z,100630.56
2022-12-09T22:08:42.985Z,100600.63
2022-12-09T22:11:13.719Z,100608.00
2022-12-09T22:13:40.673Z,100602.22
2022-12-09T22:16:13.274Z,100530.91
2022-12-09T22:18:41.750Z,100515.38
2022-12-09T22:21:27.448Z,100511.59
2022-12-09T22:23:56.890Z,100638.75
2022-12-09T22:26:24.061Z,100605.31
2022-12-09T22:28:50.719Z,100624.59
2022-12-09T22:31:21.282Z,100632.97
2022-12-09T22:33:49.468Z,100581.88
2022-12-09T22:36:17.048Z,100598.28
2022-12-09T22:38:44.160Z,100616.72
2022-12-09T22:41:13.519Z,100633.69
2022-12-09T22:43:41.018Z,100604.06
2022-12-09T22:46:13.975Z,100625.63
2022-12-09T22:48:41.609Z,100549.16
2022-12-09T22:51:17.007Z,100660.88
2022-12-09T22:53:44.113Z,100632.22
2022-12-09T22:56:12.047Z,100665.97
2022-12-09T22:58:38.519Z,100526.13
2022-12-09T23:01:11.294Z,100545.97
2022-12-09T23:03:37.967Z,100607.88
2022-12-09T23:06:05.010Z,100622.13
2022-12-09T23:08:31.623Z,100648.09
2022-12-09T23:11:03.162Z,100665.16
2022-12-09T23:13:32.263Z,100556.38
2022-12-09T23:16:03.176Z,100554.47
2022-12-09T23:18:30.639Z,100645.22
2022-12-09T23:21:06.526Z,100563.66
2022-12-09T23:23:33.187Z,100559.97
2022-12-09T23:26:09.086Z,100559.66
2022-12-09T23:28:46.970Z,100661.19
2022-12-09T23:31:15.316Z,100558.25
2022-12-09T23:33:43.833Z,100653.81
2022-12-09T23:36:13.310Z,100550.78
2022-12-09T23:38:40.695Z,100653.81
2022-12-09T23:41:07.637Z,100620.44
2022-12-09T23:43:36.489Z,100638.63
2022-12-09T23:46:15.136Z,100655.59
2022-12-09T23:48:43.496Z,100636.53
2022-12-09T23:51:12.090Z,100541.19
2022-12-09T23:53:39.421Z,100583.03
2022-12-09T23:56:07.373Z,100670.19
2022-12-09T23:58:34.104Z,100634.44
